AirNav   Phillips 66 Aviation Fuel
 
 366 users online  

23CN Douthitt Strip Airport
El Centro, California, USA

GOING TO EL CENTRO?


FAA INFORMATION EFFECTIVE 16 AUGUST 2018

Location

FAA Identifier: 23CN
Lat/Long: 32-47-20.1990N / 115-31-46.9810W
32-47.336650N / 115-31.783017W
32.7889442 / -115.5297169
(estimated)
Elevation: 45 ft. / 14 m (estimated)
Variation: 13E (1985)
From city: 1 mile E of EL CENTRO, CA
Time zone: UTC -7 (UTC -8 during Standard Time)
Zip code: 92243

Airport Operations

Airport use: Private use. Permission required prior to landing
Activation date: 06/1948
Control tower: no
ARTCC: LOS ANGELES CENTER
FSS: SAN DIEGO FLIGHT SERVICE STATION
Attendance: UNATNDD
Wind indicator: yes
Segmented circle: yes

Airport Communications

WX ASOS at IPL (4 nm NW): 132.175 (760-355-2851)

Nearby radio navigation aids

VOR radial/distance  VOR name  Freq  Var
IPLr322/2.6IMPERIAL VORTAC115.9014E

Airport Services

Airframe service: MAJOR
Powerplant service: MAJOR

Runway Information

Runway 4/22

Dimensions: 1800 x 100 ft. / 549 x 30 m
Surface: dirt
RUNWAY 4  RUNWAY 22
Traffic pattern: leftleft

Runway 8/26

Dimensions: 1400 x 100 ft. / 427 x 30 m
Surface: dirt
Runway edge markings: RUNWAY MARKED WITH R.
RUNWAY 8  RUNWAY 26
Traffic pattern: leftleft

Airport Ownership and Management from official FAA records

Ownership: Privately-owned
Owner: R. DOUTHITT ENT. INC.
717 SANDALWOOD DR
EL CENTRO, CA 92244
Phone (760) 562-0123
Manager: BOB DOUTHITT
717 SANDALWOOD DR
EL CENTRO, CA 92243
Phone (760) 562-0123

Airport Operational Statistics

Aircraft based on the field: 23
Single engine airplanes: 21
Ultralights: 2
    

Additional Remarks

TREES NEAR RWY.

Instrument Procedures

There are no published instrument procedures at 23CN.

Some nearby airports with instrument procedures:

KIPL - Imperial County Airport (4 nm NW)
KNJK - El Centro NAF Airport (7 nm W)
KBWC - Brawley Municipal Airport (12 nm N)
KCLR - Cliff Hatfield Memorial Airport (21 nm N)
KNYL - Yuma Marine Corps Air Station/Yuma International Airport (47 nm E)
 
Loc | Ops | Rwys | IFR | FBO | Links
Com | Nav | Svcs | Stats | Notes


 
Area around 23CN (Douthitt Strip Airport)
 
Road maps at: MapQuest Bing Google
 
Aerial photo
No photo
 
Sectional chart

 
Airport distance calculator
Flying to Douthitt Strip Airport? Find the distance to fly.

From to 23CN

Sunrise and sunset
Times for 18-Aug-2018
 Local
(UTC-7)
 Zulu
(UTC)
Morning civil twilight05:4312:43
Sunrise06:0913:09
Sunset19:2302:23
Evening civil twilight19:4902:49

Current date and time
Zulu (UTC)  18-Aug-2018 08:20:23
Local (UTC-7)  18-Aug-2018 01:20:23
 
METAR
KIPL 
4nm NW 
180753Z AUTO 18003KT 10SM CLR 34/18 A2987 RMK AO2 SLP117 T03390178 404110283
KNJK 
7nm W 
180756Z AUTO 22005KT 10SM CLR 34/16 A2990 RMK AO2 SLP139 T03440161 404110278
MMML 
17nm SE 
180742Z 12004KT 10SM SKC 30/21 A2990
TAF
KIPL 
4nm NW 
180520Z 1806/1906 16008KT P6SM FEW080 FEW250 FM181000 VRB04KT P6SM FEW080 FEW250
KNJK 
7nm W 
1723/1823 VRB06KT 9999 FEW080 FEW250 QNH2981INS BECMG 1802/1804 24010KT 9999 FEW080 FEW250 QNH2983INS FM181100 VRB06KT 9999 FEW250 QNH2980INS AUTOMATED SENSOR METWATCH 1801 TIL 1813 T28/1813Z T42/1823Z FS30109
MMML 
17nm SE 
180519Z 1806/1906 16005KT P6SM SCT250 FM181600 16010KT P6SM SCT250 FM190100 16005KT P6SM SCT250
NOTAMs
Click for the latest NOTAMs
NOTAMs are issued by the DoD/FAA and will open in a separate window not controlled by AirNav.

 

 
 

Would you like to see your business listed on this page?

 If your business provides an interesting product or service to pilots, flight crews, aircraft, or users of the Douthitt Strip Airport, you should consider listing it here.  To start the listing process, click on the button below
 
Add a business
 

Other Pages about Douthitt Strip Airport

Update a link
 
Copyright © AirNav, LLC. All rights reserved. Privacy Policy  Contact